Time;durP1;ratioP1;P1;durP2;ratioP2;P2;SDS_P1;SDS_P2;PMS_P1;PMS_P2;Temp;Humidity;BMP_temperature;BMP_pressure;BME280_temperature;BME280_humidity;BME280_pressure;Samples;Min_cycle;Max_cycle;Signal;HPM_P1;HPM_P2
2022/02/12 12:34:07;;;;;;;7.35;4.40;;;7.40;82.10;;;;;;5079435;28;20387;-61
2022/02/12 12:36:37;;;;;;;7.28;3.67;;;7.50;82.60;;;;;;5067292;28;20044;-62
2022/02/12 12:39:11;;;;;;;10.40;3.22;;;7.50;83.00;;;;;;5067625;28;20495;-62
2022/02/12 12:41:39;;;;;;;35.22;24.45;;;7.60;82.20;;;;;;5063760;28;20092;-64
2022/02/12 12:44:07;;;;;;;19.35;12.18;;;7.70;81.70;;;;;;5047673;28;20045;-64
2022/02/12 12:46:35;;;;;;;13.93;4.50;;;7.80;81.60;;;;;;5046075;28;20132;-63
2022/02/12 12:49:02;;;;;;;5.95;3.60;;;7.80;81.30;;;;;;5067473;28;20045;-64
2022/02/12 12:51:29;;;;;;;7.72;3.90;;;7.80;83.20;;;;;;5059531;28;20057;-62
2022/02/12 12:54:00;;;;;;;5.95;3.33;;;7.90;81.60;;;;;;5047408;28;20091;-62
2022/02/12 12:56:27;;;;;;;14.30;4.35;;;7.90;82.20;;;;;;5058873;28;20049;-61
2022/02/12 12:59:05;;;;;;;9.15;2.83;;;8.00;82.10;;;;;;5068732;28;20430;-66
2022/02/12 13:01:57;;;;;;;7.15;2.90;;;8.10;81.00;;;;;;5034504;28;20064;-71
2022/02/12 13:04:24;;;;;;;6.88;3.30;;;8.10;81.50;;;;;;5067025;28;20051;-66
2022/02/12 13:06:53;;;;;;;10.50;4.60;;;8.10;82.30;;;;;;5067411;28;20051;-63
2022/02/12 13:09:20;;;;;;;10.85;4.13;;;8.10;82.80;;;;;;5068316;28;20067;-70
2022/02/12 13:11:47;;;;;;;9.52;3.30;;;8.00;79.40;;;;;;5065015;28;20493;-74
2022/02/12 13:14:14;;;;;;;5.43;2.85;;;8.00;78.60;;;;;;5046835;28;20053;-71
2022/02/12 13:16:44;;;;;;;5.28;2.80;;;8.00;78.60;;;;;;5056615;28;20041;-68
2022/02/12 13:19:11;;;;;;;11.45;3.53;;;8.00;80.80;;;;;;5066247;28;20044;-70
2022/02/12 13:21:47;;;;;;;11.15;3.47;;;8.00;79.50;;;;;;5057111;28;20057;-71
2022/02/12 13:24:15;;;;;;;9.18;3.83;;;8.00;80.50;;;;;;5060315;28;20040;-71
2022/02/12 13:26:45;;;;;;;6.70;2.90;;;8.00;80.80;;;;;;5065899;28;20140;-69
2022/02/12 13:29:18;;;;;;;11.95;3.42;;;7.90;80.80;;;;;;5067958;28;20477;-73
2022/02/12 13:31:51;;;;;;;6.40;2.88;;;7.90;80.80;;;;;;5067320;28;20064;-75
2022/02/12 13:34:18;;;;;;;8.30;3.30;;;7.80;81.20;;;;;;5051040;28;20049;-70
2022/02/12 13:36:46;;;;;;;12.25;3.35;;;7.80;81.30;;;;;;5065709;28;20047;-77
2022/02/12 13:39:20;;;;;;;69.70;43.40;;;7.80;82.00;;;;;;5066119;28;20489;-71
2022/02/12 13:41:51;;;;;;;12.95;5.60;;;7.80;80.10;;;;;;5055516;28;20053;-72
2022/02/12 13:44:40;;;;;;;8.63;3.80;;;7.80;79.70;;;;;;5023044;28;20777;-73
2022/02/12 13:47:07;;;;;;;10.18;3.25;;;7.70;79.20;;;;;;5033751;28;20051;-72
2022/02/12 13:49:38;;;;;;;10.25;4.13;;;7.70;79.90;;;;;;5033590;28;20136;-71
2022/02/12 13:52:06;;;;;;;8.20;2.50;;;7.70;80.80;;;;;;5033336;28;20392;-72
2022/02/12 13:54:33;;;;;;;14.55;4.50;;;7.70;80.20;;;;;;5034791;28;20049;-71
2022/02/12 13:57:02;;;;;;;12.55;3.10;;;7.70;80.60;;;;;;5040794;28;20048;-77
2022/02/12 13:59:29;;;;;;;8.85;3.60;;;7.70;80.90;;;;;;5052896;28;20041;-72
2022/02/12 14:01:58;;;;;;;11.30;3.22;;;7.70;82.50;;;;;;5054370;28;20060;-72
2022/02/12 14:04:25;;;;;;;9.35;3.92;;;7.70;83.00;;;;;;5023645;28;20513;-72
2022/02/12 14:06:52;;;;;;;10.27;3.53;;;7.70;83.70;;;;;;5044335;28;20055;-72
2022/02/12 14:09:20;;;;;;;6.55;3.38;;;7.70;82.10;;;;;;5052442;28;20504;-71
2022/02/12 14:11:50;;;;;;;10.25;2.90;;;7.80;83.00;;;;;;5052237;28;20488;-72
2022/02/12 14:14:17;;;;;;;9.02;2.63;;;7.80;81.50;;;;;;5052808;28;20495;-71
2022/02/12 14:16:45;;;;;;;5.00;2.80;;;7.80;81.90;;;;;;5032786;28;20124;-73
2022/02/12 14:19:14;;;;;;;7.10;2.90;;;7.80;82.50;;;;;;5048384;28;20125;-71
2022/02/12 14:21:42;;;;;;;6.97;3.35;;;7.80;82.80;;;;;;5044090;28;20147;-71
2022/02/12 14:24:09;;;;;;;8.60;3.22;;;7.80;83.10;;;;;;5041344;28;20432;-71
2022/02/12 14:26:36;;;;;;;6.55;3.05;;;7.80;81.60;;;;;;5052122;28;20060;-71
2022/02/12 14:29:04;;;;;;;9.98;4.50;;;7.80;80.80;;;;;;5051993;28;20116;-72
2022/02/12 14:31:31;;;;;;;11.45;4.03;;;7.90;81.00;;;;;;5053584;28;20386;-71
2022/02/12 14:33:58;;;;;;;7.70;3.30;;;7.90;82.80;;;;;;5053024;28;20530;-71
2022/02/12 14:36:25;;;;;;;10.77;2.80;;;7.80;79.90;;;;;;5045001;28;20132;-73
2022/02/12 14:38:53;;;;;;;6.40;2.83;;;7.80;79.30;;;;;;5028828;28;20056;-71
2022/02/12 14:41:20;;;;;;;10.38;2.67;;;7.80;79.30;;;;;;5052462;28;20056;-75
2022/02/12 14:43:47;;;;;;;7.07;3.00;;;7.80;78.40;;;;;;5034784;28;20061;-74
2022/02/12 14:46:15;;;;;;;7.50;3.17;;;7.70;79.20;;;;;;5027113;28;20060;-72
2022/02/12 14:48:43;;;;;;;6.05;3.03;;;7.60;78.70;;;;;;5052068;28;20124;-72
2022/02/12 14:51:10;;;;;;;10.63;3.92;;;7.60;79.20;;;;;;5047740;28;20045;-71
2022/02/12 14:53:52;;;;;;;10.02;4.00;;;7.60;80.30;;;;;;5043445;28;20102;-71
2022/02/12 14:56:19;;;;;;;11.50;3.75;;;7.60;79.50;;;;;;5051744;28;20495;-71
2022/02/12 14:58:46;;;;;;;14.43;3.70;;;7.60;79.60;;;;;;5051240;28;20503;-71
2022/02/12 15:01:13;;;;;;;8.77;4.60;;;7.70;80.80;;;;;;5033391;28;20049;-72
2022/02/12 15:03:40;;;;;;;10.93;5.35;;;7.70;81.10;;;;;;5032363;28;20107;-76
2022/02/12 15:06:06;;;;;;;8.63;4.68;;;7.70;80.50;;;;;;5017953;28;20050;-71
2022/02/12 15:08:33;;;;;;;9.23;3.47;;;7.70;80.30;;;;;;5052416;28;20504;-72
2022/02/12 15:11:00;;;;;;;10.68;4.35;;;7.70;80.00;;;;;;5052452;28;20041;-72
2022/02/12 15:13:28;;;;;;;27.67;17.15;;;7.70;80.10;;;;;;5050940;28;20132;-70
2022/02/12 15:15:55;;;;;;;10.82;4.80;;;7.70;79.20;;;;;;5034295;28;20041;-69
2022/02/12 15:18:22;;;;;;;10.65;3.92;;;7.80;79.40;;;;;;5052677;28;20045;-69
2022/02/12 15:20:53;;;;;;;10.82;3.35;;;7.70;78.60;;;;;;5048857;28;20111;-69
2022/02/12 15:23:20;;;;;;;6.82;3.22;;;7.60;78.90;;;;;;5039429;28;20049;-69
2022/02/12 15:25:48;;;;;;;7.35;3.47;;;7.50;79.10;;;;;;5040428;28;20049;-70
2022/02/12 15:28:15;;;;;;;10.07;3.55;;;7.50;78.90;;;;;;5051359;28;20053;-69
2022/02/12 15:30:44;;;;;;;10.13;2.72;;;7.40;78.40;;;;;;5051372;28;20472;-70
2022/02/12 15:33:11;;;;;;;6.57;2.88;;;7.30;79.50;;;;;;5052250;28;20493;-69
2022/02/12 15:35:42;;;;;;;6.78;2.63;;;7.20;79.80;;;;;;5034442;28;20401;-69
2022/02/12 15:38:09;;;;;;;44.97;35.03;;;7.20;79.00;;;;;;5051640;28;20045;-71
2022/02/12 15:40:36;;;;;;;8.23;4.28;;;7.30;81.30;;;;;;5051193;28;20394;-70
2022/02/12 15:43:03;;;;;;;11.38;4.00;;;7.30;79.00;;;;;;5041066;28;20406;-70
2022/02/12 15:45:32;;;;;;;6.32;3.08;;;7.30;79.20;;;;;;5036924;28;20049;-70
2022/02/12 15:47:59;;;;;;;;;;;7.20;79.40;;;;;;5035179;28;20045;-76
2022/02/12 15:50:27;;;;;;;77.57;48.58;;;7.20;79.50;;;;;;5066131;28;19929;-69
2022/02/12 15:52:55;;;;;;;12.15;5.70;;;7.20;80.10;;;;;;5035080;28;20053;-71
2022/02/12 15:55:23;;;;;;;12.88;8.68;;;7.20;80.50;;;;;;5030968;28;20505;-72
2022/02/12 15:57:50;;;;;;;10.10;4.95;;;7.10;81.40;;;;;;5037299;28;20079;-71
2022/02/12 16:00:18;;;;;;;10.45;4.43;;;7.10;80.70;;;;;;5042210;28;20049;-70
2022/02/12 16:02:45;;;;;;;8.80;2.95;;;7.10;82.20;;;;;;5050195;28;20044;-69
2022/02/12 16:05:13;;;;;;;8.20;2.63;;;7.00;82.10;;;;;;5049846;28;20064;-66
2022/02/12 16:07:40;;;;;;;7.93;2.95;;;7.00;82.50;;;;;;5034313;28;20136;-68
2022/02/12 16:10:07;;;;;;;8.52;3.30;;;6.90;82.40;;;;;;5052298;28;20045;-66
2022/02/12 16:12:34;;;;;;;9.63;5.38;;;6.90;83.00;;;;;;5040997;28;20046;-66
2022/02/12 16:15:02;;;;;;;9.73;3.88;;;6.80;82.90;;;;;;5031025;28;20060;-69
2022/02/12 16:17:29;;;;;;;12.80;3.58;;;6.80;84.00;;;;;;5030752;28;20432;-68
2022/02/12 16:19:56;;;;;;;11.55;3.80;;;6.70;83.80;;;;;;5030974;28;20052;-68
2022/02/12 16:22:23;;;;;;;10.35;3.63;;;6.70;84.80;;;;;;5014692;28;20056;-68
2022/02/12 16:24:50;;;;;;;8.05;4.05;;;6.60;84.60;;;;;;5032002;28;20099;-68
2022/02/12 16:27:17;;;;;;;11.20;4.72;;;6.60;85.40;;;;;;5031414;28;20059;-69
2022/02/12 16:29:44;;;;;;;7.93;3.83;;;6.50;86.20;;;;;;5014680;28;20049;-67
2022/02/12 16:32:11;;;;;;;12.80;4.60;;;6.50;86.50;;;;;;5032061;28;20053;-68
2022/02/12 16:34:38;;;;;;;7.85;3.25;;;6.40;86.60;;;;;;5032095;28;20061;-68
2022/02/12 16:37:10;;;;;;;10.45;3.80;;;6.40;87.10;;;;;;5031806;28;20072;-69
2022/02/12 16:39:37;;;;;;;6.80;3.25;;;6.30;87.50;;;;;;5032176;28;20459;-68
2022/02/12 16:42:04;;;;;;;8.60;4.38;;;6.30;87.70;;;;;;5031089;28;20046;-69
2022/02/12 16:44:33;;;;;;;11.88;4.07;;;6.30;88.40;;;;;;5030884;28;20045;-71
2022/02/12 16:47:01;;;;;;;10.60;3.27;;;6.20;88.40;;;;;;5015123;28;20065;-69
2022/02/12 16:49:28;;;;;;;8.13;3.50;;;6.10;88.60;;;;;;5027341;28;20096;-69
2022/02/12 16:51:55;;;;;;;9.70;4.65;;;6.10;88.70;;;;;;5038670;28;20049;-68
2022/02/12 16:54:27;;;;;;;12.90;5.10;;;6.10;88.80;;;;;;5030520;28;20049;-68
2022/02/12 16:56:54;;;;;;;7.35;4.03;;;6.00;89.00;;;;;;5030325;28;20150;-69
2022/02/12 16:59:21;;;;;;;8.15;3.45;;;6.00;89.50;;;;;;5031541;28;20528;-69
2022/02/12 17:01:48;;;;;;;8.77;4.30;;;6.00;89.90;;;;;;5030569;28;20513;-69
2022/02/12 17:04:15;;;;;;;5.88;3.95;;;5.90;90.10;;;;;;5013945;28;20596;-69
2022/02/12 17:06:42;;;;;;;10.90;4.15;;;5.90;90.10;;;;;;5031604;28;20116;-69
2022/02/12 17:09:09;;;;;;;8.43;4.38;;;5.90;90.20;;;;;;5031248;28;20490;-69
2022/02/12 17:11:35;;;;;;;9.45;4.00;;;5.80;90.20;;;;;;5031061;28;20375;-69
2022/02/12 17:14:02;;;;;;;6.32;3.65;;;5.80;90.20;;;;;;5030162;28;20481;-74
2022/02/12 17:16:29;;;;;;;13.77;5.38;;;5.70;90.40;;;;;;5029891;28;20052;-69
2022/02/12 17:18:56;;;;;;;6.07;4.32;;;5.70;90.50;;;;;;5032236;28;20485;-68
2022/02/12 17:21:23;;;;;;;8.65;3.88;;;5.70;90.80;;;;;;5033940;28;20046;-68
2022/02/12 17:23:56;;;;;;;8.40;3.80;;;5.70;90.70;;;;;;5033872;28;20049;-69
2022/02/12 17:26:23;;;;;;;9.30;4.47;;;5.60;90.90;;;;;;5034730;28;20401;-70
2022/02/12 17:28:50;;;;;;;7.32;3.47;;;5.60;91.10;;;;;;5035077;28;20072;-68
2022/02/12 17:31:17;;;;;;;8.05;4.35;;;5.60;91.20;;;;;;5040794;28;20408;-68
2022/02/12 17:33:47;;;;;;;9.63;4.30;;;5.60;91.40;;;;;;5049880;28;20055;-68
2022/02/12 17:36:14;;;;;;;10.07;4.43;;;5.60;91.50;;;;;;5042724;28;20060;-68
2022/02/12 17:38:42;;;;;;;7.60;3.92;;;5.60;91.50;;;;;;5035086;28;20057;-68
2022/02/12 17:41:09;;;;;;;8.45;4.07;;;5.70;91.50;;;;;;5033034;28;20501;-68
2022/02/12 17:43:37;;;;;;;10.70;4.82;;;5.70;91.60;;;;;;5035586;28;20057;-69
2022/02/12 17:46:04;;;;;;;12.30;6.43;;;5.70;91.80;;;;;;5046396;28;20045;-68
2022/02/12 17:48:31;;;;;;;9.05;4.50;;;5.70;91.70;;;;;;5032397;28;20501;-68
2022/02/12 17:50:58;;;;;;;15.18;5.78;;;5.80;92.00;;;;;;5033133;28;20501;-75
2022/02/12 17:53:25;;;;;;;10.75;6.00;;;5.80;92.20;;;;;;5034081;28;20500;-69
2022/02/12 17:55:52;;;;;;;13.98;5.55;;;5.80;92.30;;;;;;5032952;28;20095;-68
2022/02/12 17:58:19;;;;;;;10.45;5.20;;;5.70;92.50;;;;;;5034571;28;20045;-69
2022/02/12 18:00:46;;;;;;;9.20;4.50;;;5.80;92.70;;;;;;5033580;28;20049;-67
2022/02/12 18:03:13;;;;;;;10.43;5.55;;;5.80;92.80;;;;;;5050860;28;20462;-67
2022/02/12 18:05:40;;;;;;;10.05;5.38;;;5.70;92.90;;;;;;5043813;28;20072;-66
2022/02/12 18:08:08;;;;;;;6.75;4.35;;;5.70;92.80;;;;;;5034933;28;20073;-67
2022/02/12 18:10:34;;;;;;;8.52;4.45;;;5.70;93.10;;;;;;5032738;28;20375;-70
2022/02/12 18:13:01;;;;;;;7.38;4.72;;;5.70;92.90;;;;;;5021051;28;20319;-67
2022/02/12 18:15:29;;;;;;;7.88;5.30;;;5.70;93.00;;;;;;5034014;28;20052;-67
2022/02/12 18:17:58;;;;;;;13.23;5.05;;;5.70;92.90;;;;;;5048721;28;20481;-67
2022/02/12 18:20:25;;;;;;;9.68;5.32;;;5.70;93.10;;;;;;5036466;28;20037;-67
2022/02/12 18:22:52;;;;;;;9.98;6.07;;;5.70;93.10;;;;;;5045509;28;20069;-67
2022/02/12 18:25:19;;;;;;;9.68;4.72;;;5.70;93.30;;;;;;5033898;28;20049;-67
2022/02/12 18:27:46;;;;;;;11.00;5.07;;;5.70;93.30;;;;;;5037374;28;20053;-68
2022/02/12 18:30:13;;;;;;;8.15;4.38;;;5.60;93.20;;;;;;5042851;28;20049;-68
2022/02/12 18:32:40;;;;;;;15.10;9.48;;;5.70;93.60;;;;;;5042945;28;20053;-69
2022/02/12 18:35:08;;;;;;;8.63;5.72;;;5.70;93.40;;;;;;5053441;28;20128;-68
2022/02/12 18:37:35;;;;;;;10.07;5.22;;;5.70;93.10;;;;;;5044719;28;20491;-63
2022/02/12 18:40:02;;;;;;;15.90;6.93;;;5.70;93.40;;;;;;5049653;28;20056;-66
2022/02/12 18:42:49;;;;;;;12.00;5.68;;;5.80;93.20;;;;;;5030648;28;20095;-69
2022/02/12 18:45:16;;;;;;;13.80;7.03;;;5.80;93.60;;;;;;5032574;28;20053;-69
2022/02/12 18:47:45;;;;;;;11.50;6.82;;;5.70;93.80;;;;;;5046342;28;20048;-68
2022/02/12 18:50:12;;;;;;;11.67;5.97;;;5.70;93.60;;;;;;5051542;28;20049;-68
2022/02/12 18:52:39;;;;;;;11.50;5.78;;;5.70;93.70;;;;;;5037240;28;20071;-68
2022/02/12 18:55:06;;;;;;;13.75;6.75;;;5.60;94.00;;;;;;5041720;28;20519;-68
2022/02/12 18:57:33;;;;;;;9.65;5.50;;;5.60;94.20;;;;;;5033490;28;20041;-70
2022/02/12 19:00:02;;;;;;;13.27;6.03;;;5.60;94.50;;;;;;5042116;28;20102;-69
2022/02/12 19:02:29;;;;;;;11.88;6.90;;;5.60;94.70;;;;;;5052941;28;20053;-68
2022/02/12 19:04:55;;;;;;;11.50;6.13;;;5.60;94.80;;;;;;5044585;28;20424;-72
2022/02/12 19:07:22;;;;;;;10.07;6.45;;;5.70;95.00;;;;;;5052049;28;20449;-67
2022/02/12 19:09:49;;;;;;;9.93;5.43;;;5.70;94.80;;;;;;5038579;28;20045;-68
2022/02/12 19:12:19;;;;;;;10.07;6.88;;;5.70;94.70;;;;;;5043059;28;20056;-67
2022/02/12 19:14:46;;;;;;;13.65;6.45;;;5.80;94.90;;;;;;5051800;28;20052;-73
2022/02/12 19:17:13;;;;;;;12.90;7.05;;;5.80;95.20;;;;;;5050886;28;20049;-70
2022/02/12 19:19:42;;;;;;;10.98;6.03;;;5.80;95.10;;;;;;5041457;28;20044;-68
2022/02/12 19:22:09;;;;;;;16.17;6.18;;;5.80;94.90;;;;;;5049619;28;20048;-67
2022/02/12 19:24:36;;;;;;;12.18;7.15;;;5.90;94.90;;;;;;5035902;28;20058;-67
2022/02/12 19:27:03;;;;;;;8.75;6.15;;;5.90;95.30;;;;;;5046824;28;20409;-68
2022/02/12 19:29:31;;;;;;;10.38;5.63;;;5.90;95.10;;;;;;5024888;28;20485;-68
2022/02/12 19:31:57;;;;;;;9.35;6.47;;;6.00;95.20;;;;;;5050841;28;20053;-73
2022/02/12 19:34:24;;;;;;;11.82;6.55;;;6.00;95.20;;;;;;5051649;28;20076;-68
2022/02/12 19:36:52;;;;;;;29.90;21.08;;;6.00;95.20;;;;;;5044000;28;20500;-66
2022/02/12 19:39:19;;;;;;;20.38;12.65;;;6.10;95.60;;;;;;5051211;28;20057;-68
2022/02/12 19:41:46;;;;;;;12.38;7.40;;;6.20;95.10;;;;;;5033843;28;20057;-66
2022/02/12 19:44:13;;;;;;;13.13;6.57;;;6.20;95.10;;;;;;5038209;28;20496;-66
2022/02/12 19:46:40;;;;;;;12.43;10.23;;;6.20;94.80;;;;;;5048435;28;20056;-66
2022/02/12 19:49:07;;;;;;;16.02;8.48;;;6.20;95.20;;;;;;5035005;28;20060;-66
2022/02/12 19:51:36;;;;;;;13.50;6.00;;;6.20;94.90;;;;;;5038974;28;20051;-65
2022/02/12 19:54:04;;;;;;;10.93;6.35;;;6.20;94.70;;;;;;5034422;28;20385;-65
2022/02/12 19:56:31;;;;;;;8.23;5.05;;;6.10;94.50;;;;;;5034450;28;20487;-65
2022/02/12 19:58:58;;;;;;;14.95;6.95;;;6.10;94.40;;;;;;5025231;28;20054;-66
2022/02/12 20:01:27;;;;;;;9.02;6.65;;;6.20;94.20;;;;;;5036743;28;20098;-66
2022/02/12 20:03:54;;;;;;;9.02;6.40;;;6.10;94.10;;;;;;5045435;28;20047;-65
2022/02/12 20:06:22;;;;;;;14.00;5.18;;;6.10;93.80;;;;;;5027982;28;20068;-66
2022/02/12 20:08:49;;;;;;;10.60;5.00;;;6.10;93.50;;;;;;5044055;28;20412;-68
2022/02/12 20:11:17;;;;;;;13.40;5.90;;;6.10;93.30;;;;;;5051186;28;20064;-66
2022/02/12 20:13:45;;;;;;;17.08;6.47;;;6.20;93.60;;;;;;5034813;28;20049;-66
2022/02/12 20:16:13;;;;;;;9.60;4.43;;;6.20;93.50;;;;;;5050447;28;20049;-65
2022/02/12 20:18:43;;;;;;;7.03;4.30;;;6.20;93.80;;;;;;5018040;28;20068;-66
2022/02/12 20:21:11;;;;;;;11.57;5.47;;;6.30;93.80;;;;;;5018384;28;20057;-66
2022/02/12 20:23:38;;;;;;;10.43;5.20;;;6.30;94.00;;;;;;5045825;28;20045;-66
2022/02/12 20:26:09;;;;;;;9.52;5.10;;;6.30;94.00;;;;;;5040976;28;20044;-66
2022/02/12 20:28:41;;;;;;;11.68;4.95;;;6.40;93.90;;;;;;5048183;28;20051;-68
2022/02/12 20:31:08;;;;;;;10.05;6.07;;;6.40;93.70;;;;;;5034771;28;20059;-69
2022/02/12 20:33:37;;;;;;;14.48;10.48;;;6.40;94.10;;;;;;5030220;28;20055;-70
2022/02/12 20:36:06;;;;;;;9.70;4.88;;;6.50;93.40;;;;;;5051988;28;20392;-68
2022/02/12 20:38:33;;;;;;;10.75;4.75;;;7.40;93.40;;;;;;5051947;28;20067;-69
2022/02/12 20:41:00;;;;;;;118.40;101.28;;;7.20;92.40;;;;;;5046115;28;20068;-72
2022/02/12 20:43:26;;;;;;;20.60;15.15;;;6.90;93.40;;;;;;5041365;28;20061;-67
2022/02/12 20:45:55;;;;;;;13.98;7.32;;;6.80;93.60;;;;;;5040158;28;20112;-67
2022/02/12 20:48:22;;;;;;;16.85;10.18;;;6.60;94.20;;;;;;5032197;28;20152;-68
2022/02/12 20:50:51;;;;;;;28.08;17.60;;;6.50;95.50;;;;;;5044302;28;20053;-67
2022/02/12 20:53:18;;;;;;;19.37;9.47;;;6.40;96.20;;;;;;5032057;28;20045;-68
2022/02/12 20:55:44;;;;;;;15.50;8.73;;;6.40;96.70;;;;;;5035298;28;20042;-68
2022/02/12 20:58:11;;;;;;;27.13;13.48;;;6.50;97.10;;;;;;5049399;28;20079;-68
2022/02/12 21:00:38;;;;;;;18.52;8.07;;;6.50;97.30;;;;;;5054750;28;20052;-68
2022/02/12 21:03:06;;;;;;;14.07;6.63;;;6.50;97.50;;;;;;5053970;28;20098;-68
2022/02/12 21:05:33;;;;;;;23.10;12.05;;;6.50;97.60;;;;;;5036953;28;20064;-70
2022/02/12 21:08:00;;;;;;;10.02;5.43;;;6.60;97.70;;;;;;5054083;28;20052;-68
2022/02/12 21:10:27;;;;;;;14.57;6.72;;;6.60;97.90;;;;;;5041232;28;20053;-68
2022/02/12 21:12:54;;;;;;;8.57;5.18;;;6.60;98.10;;;;;;5054844;28;20047;-68
2022/02/12 21:15:21;;;;;;;10.95;4.68;;;6.60;98.20;;;;;;5055109;28;20053;-68
2022/02/12 21:18:09;;;;;;;10.35;4.38;;;6.60;98.20;;;;;;5046671;28;20127;-67
2022/02/12 21:20:36;;;;;;;9.90;4.38;;;6.60;98.60;;;;;;5034144;28;20454;-68
2022/02/12 21:23:03;;;;;;;10.68;4.50;;;6.60;98.80;;;;;;5051419;28;20049;-68
2022/02/12 21:25:31;;;;;;;9.30;4.20;;;6.60;99.20;;;;;;5054558;28;20049;-68
2022/02/12 21:28:17;;;;;;;10.90;4.82;;;6.60;99.50;;;;;;5053498;28;20057;-72
2022/02/12 21:30:44;;;;;;;14.60;4.70;;;6.60;99.90;;;;;;5052391;28;20049;-68
2022/02/12 21:33:11;;;;;;;10.52;4.70;;;6.60;99.90;;;;;;5054738;28;20053;-68
2022/02/12 21:35:38;;;;;;;17.35;6.28;;;6.60;99.90;;;;;;5053105;28;20044;-68
2022/02/12 21:38:06;;;;;;;16.25;7.32;;;6.60;99.90;;;;;;5054591;28;20432;-68
2022/02/12 21:40:33;;;;;;;17.92;7.25;;;6.60;99.90;;;;;;5038994;28;20080;-67
2022/02/12 21:43:00;;;;;;;25.55;11.35;;;6.60;99.90;;;;;;5044787;28;20060;-68
2022/02/12 21:45:29;;;;;;;16.75;9.18;;;6.60;99.90;;;;;;5054768;28;20102;-69
2022/02/12 21:47:56;;;;;;;138.43;96.40;;;6.60;99.90;;;;;;5051546;28;20044;-72
2022/02/12 21:50:23;;;;;;;192.88;136.70;;;6.60;99.90;;;;;;5053416;28;20057;-72
2022/02/12 21:52:50;;;;;;;37.83;19.40;;;6.70;99.90;;;;;;5042016;28;20416;-70
2022/02/12 21:55:19;;;;;;;20.17;9.88;;;6.80;99.90;;;;;;5053193;28;20492;-70
2022/02/12 21:57:47;;;;;;;30.08;15.20;;;6.70;99.90;;;;;;5037294;28;20053;-70
2022/02/12 22:00:15;;;;;;;36.97;22.30;;;6.70;99.90;;;;;;5068392;28;20167;-70
2022/02/12 22:02:42;;;;;;;23.98;15.80;;;6.80;99.90;;;;;;5015757;28;20413;-71
2022/02/12 22:05:10;;;;;;;16.92;10.45;;;6.80;99.90;;;;;;5051336;28;20045;-70
2022/02/12 22:07:37;;;;;;;15.80;7.15;;;6.80;99.90;;;;;;5053909;28;20093;-70
2022/02/12 22:10:05;;;;;;;19.10;9.18;;;6.80;99.90;;;;;;5045964;28;20049;-70
2022/02/12 22:12:32;;;;;;;20.48;10.30;;;6.90;99.90;;;;;;5054102;28;20075;-69
2022/02/12 22:14:59;;;;;;;21.13;10.75;;;6.90;99.90;;;;;;5019258;28;20046;-70
2022/02/12 22:17:27;;;;;;;15.70;8.02;;;6.90;99.90;;;;;;5032066;28;20052;-70
2022/02/12 22:19:54;;;;;;;16.45;8.15;;;6.80;99.90;;;;;;5052419;28;20140;-70
2022/02/12 22:22:21;;;;;;;26.05;17.65;;;6.80;99.90;;;;;;5042011;28;20045;-63
2022/02/12 22:24:48;;;;;;;29.67;17.73;;;6.90;99.90;;;;;;5052529;28;20041;-68
2022/02/12 22:27:15;;;;;;;59.45;34.17;;;6.90;99.90;;;;;;5069425;28;20123;-69
2022/02/12 22:29:42;;;;;;;55.08;35.28;;;6.90;99.90;;;;;;5052673;28;20045;-68
2022/02/12 22:32:09;;;;;;;18.13;9.85;;;7.00;99.90;;;;;;5034977;28;20102;-68
2022/02/12 22:34:36;;;;;;;21.50;10.57;;;7.00;99.90;;;;;;5043067;28;20128;-68
2022/02/12 22:37:04;;;;;;;16.10;8.18;;;7.00;99.90;;;;;;5016208;28;20054;-68
2022/02/12 22:39:31;;;;;;;17.05;8.45;;;7.00;99.90;;;;;;5034345;28;20052;-68
2022/02/12 22:41:58;;;;;;;14.82;8.55;;;7.00;99.90;;;;;;5032361;28;20128;-68
2022/02/12 22:44:24;;;;;;;14.38;8.73;;;7.00;99.90;;;;;;5043007;28;20056;-68
2022/02/12 22:46:51;;;;;;;16.60;8.25;;;7.10;99.90;;;;;;5025173;28;20080;-68
2022/02/12 22:49:18;;;;;;;13.55;8.07;;;7.10;99.90;;;;;;5032396;28;20072;-68
2022/02/12 22:51:45;;;;;;;15.02;8.15;;;7.10;99.90;;;;;;5037766;28;20444;-68
2022/02/12 22:54:12;;;;;;;15.98;8.82;;;7.10;99.90;;;;;;5053265;28;20056;-68
2022/02/12 22:56:39;;;;;;;18.05;9.48;;;7.10;99.90;;;;;;5051667;28;20049;-68
2022/02/12 22:59:06;;;;;;;19.02;9.10;;;7.10;99.90;;;;;;5053290;28;20041;-68
2022/02/12 23:01:34;;;;;;;15.93;9.50;;;7.10;99.90;;;;;;5050703;28;20049;-68
2022/02/12 23:04:02;;;;;;;17.95;8.10;;;7.10;99.90;;;;;;5045431;28;20045;-68
2022/02/12 23:06:30;;;;;;;15.02;9.18;;;7.10;99.90;;;;;;5048194;28;20041;-68
2022/02/12 23:08:57;;;;;;;20.13;9.95;;;7.10;99.90;;;;;;5052179;28;20045;-68
2022/02/12 23:11:36;;;;;;;15.65;8.90;;;7.10;99.90;;;;;;5052747;28;20049;-68
2022/02/12 23:14:04;;;;;;;16.52;8.88;;;7.10;99.90;;;;;;5051575;28;20052;-68
2022/02/12 23:16:31;;;;;;;14.30;8.18;;;7.20;99.90;;;;;;5050483;28;20059;-68
2022/02/12 23:19:00;;;;;;;12.23;7.65;;;7.20;99.90;;;;;;5051041;28;20053;-68
2022/02/12 23:21:27;;;;;;;20.85;8.00;;;7.10;99.90;;;;;;5047479;28;20056;-68
2022/02/12 23:23:54;;;;;;;12.90;8.73;;;7.20;99.90;;;;;;5026416;28;20064;-67
2022/02/12 23:26:21;;;;;;;14.32;7.78;;;7.10;99.90;;;;;;5051936;28;20104;-67
2022/02/12 23:28:48;;;;;;;14.77;8.57;;;7.10;99.90;;;;;;5042908;28;20439;-68
2022/02/12 23:31:16;;;;;;;16.48;8.00;;;7.10;99.90;;;;;;5051010;28;20045;-68
2022/02/12 23:33:43;;;;;;;15.70;8.52;;;7.10;99.90;;;;;;5051911;28;20078;-68
2022/02/12 23:36:10;;;;;;;13.15;8.65;;;7.10;99.90;;;;;;5052507;28;20471;-67
2022/02/12 23:38:37;;;;;;;14.18;9.35;;;7.10;99.90;;;;;;5051829;28;20518;-67
2022/02/12 23:41:04;;;;;;;18.77;9.32;;;7.20;99.90;;;;;;5050501;28;20049;-67
2022/02/12 23:43:30;;;;;;;19.30;9.88;;;7.10;99.90;;;;;;5052074;28;20496;-68
2022/02/12 23:45:57;;;;;;;14.25;8.40;;;7.10;99.90;;;;;;5042373;28;20076;-67
2022/02/12 23:48:24;;;;;;;14.20;8.65;;;7.10;99.90;;;;;;5032244;28;20527;-67
2022/02/12 23:50:54;;;;;;;16.17;9.75;;;7.10;99.90;;;;;;5050792;28;20052;-67
2022/02/12 23:53:22;;;;;;;15.40;9.05;;;7.10;99.90;;;;;;5013222;28;20049;-68
2022/02/12 23:55:56;;;;;;;21.73;10.63;;;7.10;99.90;;;;;;5050331;28;20061;-68
2022/02/12 23:58:23;;;;;;;20.52;9.13;;;7.10;99.90;;;;;;5066735;28;20099;-68
